Time;durP1;ratioP1;P1;durP2;ratioP2;P2;SDS_P1;SDS_P2;PMS_P1;PMS_P2;Temp;Humidity;BMP_temperature;BMP_pressure;BME280_temperature;BME280_humidity;BME280_pressure;Samples;Min_cycle;Max_cycle;Signal;HPM_P1;HPM_P2
2022/06/11 00:01:43;;;;;;;20.38;17.90;;;;;;;17.01;91.64;95949.84;5095281;28;20371;-62
2022/06/11 00:04:13;;;;;;;18.25;16.35;;;;;;;17.06;91.44;95958.25;5095242;28;20031;-62
2022/06/11 00:06:44;;;;;;;18.58;16.67;;;;;;;17.09;91.18;95967.78;5095338;28;20028;-62
2022/06/11 00:09:09;;;;;;;23.52;17.52;;;;;;;17.03;91.09;95967.25;5095245;28;20082;-62
2022/06/11 00:11:36;;;;;;;18.20;16.33;;;;;;;17.12;90.46;95970.19;5094936;28;20414;-62
2022/06/11 00:14:02;;;;;;;18.10;16.30;;;;;;;17.14;90.53;95970.94;5095076;28;20389;-62
2022/06/11 00:16:29;;;;;;;21.48;17.10;;;;;;;17.23;90.57;95969.41;5094939;28;20494;-62
2022/06/11 00:18:56;;;;;;;16.92;15.27;;;;;;;17.21;89.80;95968.69;5094982;28;20039;-62
2022/06/11 00:21:24;;;;;;;18.75;16.17;;;;;;;17.17;89.85;95963.66;5094843;28;20024;-62
2022/06/11 00:23:51;;;;;;;18.65;15.52;;;;;;;17.13;89.94;95961.34;5094804;28;20047;-62
2022/06/11 00:26:17;;;;;;;18.58;14.35;;;;;;;17.14;89.61;95966.50;5094734;28;20036;-61
2022/06/11 00:28:43;;;;;;;18.55;15.70;;;;;;;17.10;90.08;95965.03;5094776;28;20027;-62
2022/06/11 00:31:10;;;;;;;17.02;15.13;;;;;;;17.09;90.12;95966.00;5094660;28;20505;-61
2022/06/11 00:33:37;;;;;;;16.92;15.27;;;;;;;17.09;89.91;95960.72;5094569;28;20078;-61
2022/06/11 00:36:05;;;;;;;16.92;15.18;;;;;;;17.05;90.00;95965.38;5094803;28;20508;-62
2022/06/11 00:38:32;;;;;;;17.88;14.73;;;;;;;17.06;89.98;95963.53;5094621;28;20074;-61
2022/06/11 00:40:58;;;;;;;18.33;15.38;;;;;;;17.04;89.60;95965.47;5092459;28;20020;-61
2022/06/11 00:43:26;;;;;;;18.02;14.35;;;;;;;17.08;89.65;95963.47;5094441;28;20028;-62
2022/06/11 00:46:01;;;;;;;15.52;14.02;;;;;;;17.12;89.47;95968.41;5094438;28;20094;-62
2022/06/11 00:48:29;;;;;;;15.48;13.98;;;;;;;17.13;88.88;95971.91;5094396;28;20024;-63
2022/06/11 00:51:11;;;;;;;12.55;11.38;;;;;;;17.14;87.67;95969.16;5094398;28;20031;-62
2022/06/11 00:53:48;;;;;;;15.02;12.38;;;;;;;17.14;88.01;95969.16;5094335;28;20032;-62
2022/06/11 00:56:48;;;;;;;17.42;12.23;;;;;;;17.09;87.82;95968.63;5094261;28;20032;-62
2022/06/11 00:59:18;;;;;;;15.95;13.35;;;;;;;17.08;88.34;95982.81;5079319;28;20081;-62
2022/06/11 01:01:47;;;;;;;17.83;14.23;;;;;;;17.15;88.36;95989.31;5094223;28;20047;-62
2022/06/11 01:04:51;;;;;;;13.88;12.38;;;;;;;17.20;87.77;95983.72;5094090;28;20032;-62
2022/06/11 01:07:40;;;;;;;19.80;14.18;;;;;;;17.06;88.57;95974.13;5012135;28;20073;-62
2022/06/11 01:10:26;;;;;;;17.63;14.43;;;;;;;16.93;89.89;95938.06;5012015;28;20120;-62
2022/06/11 01:12:52;;;;;;;19.08;14.10;;;;;;;16.79;90.73;95940.84;5075012;28;20062;-62
2022/06/11 01:15:24;;;;;;;17.20;14.55;;;;;;;16.64;92.02;95933.09;5093912;28;20098;-62
2022/06/11 01:17:58;;;;;;;24.10;16.23;;;;;;;16.58;92.69;95928.25;5093968;28;20036;-62
2022/06/11 01:20:41;;;;;;;26.85;15.25;;;;;;;16.52;92.85;95931.31;5093822;28;20381;-62
2022/06/11 01:23:26;;;;;;;20.67;16.50;;;;;;;16.45;93.35;95936.22;5093784;28;20100;-62
2022/06/11 01:26:15;;;;;;;20.80;15.85;;;;;;;16.46;93.16;95932.59;5092448;28;20430;-62
2022/06/11 01:28:46;;;;;;;14.93;12.98;;;;;;;16.41;92.54;95934.75;5093734;28;20031;-62
2022/06/11 01:31:26;;;;;;;18.70;14.85;;;;;;;16.40;92.95;95928.63;5093601;28;20127;-62
2022/06/11 01:33:51;;;;;;;20.13;15.70;;;;;;;16.41;93.20;95932.94;5093613;28;20028;-62
2022/06/11 01:36:17;;;;;;;16.98;14.85;;;;;;;16.44;93.10;95941.59;5093530;28;20099;-62
2022/06/11 01:39:07;;;;;;;17.83;15.80;;;;;;;16.41;93.52;95940.03;5093459;28;20032;-62
2022/06/11 01:41:50;;;;;;;21.10;15.07;;;;;;;16.42;93.24;95931.16;5093497;28;20097;-62
2022/06/11 01:44:26;;;;;;;20.65;14.73;;;;;;;16.39;92.98;95945.41;5093499;28;20043;-62
2022/06/11 01:46:55;;;;;;;19.52;14.40;;;;;;;16.41;92.77;95943.50;5093404;28;20473;-62
2022/06/11 01:49:21;;;;;;;16.13;14.35;;;;;;;16.45;92.84;95948.56;5093352;28;20020;-62
2022/06/11 01:52:17;;;;;;;16.25;14.65;;;;;;;16.49;92.78;95955.28;5093065;28;20028;-62
2022/06/11 01:55:04;;;;;;;16.75;14.38;;;;;;;16.50;92.83;95951.72;5093419;28;20532;-62
2022/06/11 01:58:02;;;;;;;18.77;15.10;;;;;;;16.50;92.95;95922.69;5093265;28;20131;-61
2022/06/11 02:00:33;;;;;;;16.95;14.80;;;;;;;16.44;93.13;95916.06;5065329;28;20028;-61
2022/06/11 02:02:59;;;;;;;21.50;14.02;;;;;;;16.49;92.86;95910.41;5093239;28;20099;-62
2022/06/11 02:05:42;;;;;;;18.58;14.32;;;;;;;16.48;92.29;95914.88;5093280;28;20055;-62
2022/06/11 02:08:46;;;;;;;15.45;13.93;;;;;;;16.41;92.78;95919.72;5093262;28;20028;-62
2022/06/11 02:11:29;;;;;;;19.98;14.45;;;;;;;16.39;93.37;95902.34;5093155;28;20078;-61
2022/06/11 02:14:00;;;;;;;15.73;14.02;;;;;;;16.39;93.17;95907.59;5093141;28;20030;-62
2022/06/11 02:16:44;;;;;;;20.73;14.30;;;;;;;16.32;93.33;95909.84;5092775;28;20048;-62
2022/06/11 02:19:16;;;;;;;16.02;14.48;;;;;;;16.32;93.48;95903.72;5093180;28;20028;-62
2022/06/11 02:21:50;;;;;;;17.58;14.48;;;;;;;16.33;93.59;95908.03;5093108;28;20039;-61
2022/06/11 02:24:26;;;;;;;16.58;14.10;;;;;;;16.34;93.73;95913.22;5092990;28;20031;-61
2022/06/11 02:26:56;;;;;;;15.23;13.63;;;;;;;16.34;93.74;95907.13;5093083;28;20030;-62
2022/06/11 02:29:23;;;;;;;18.77;14.48;;;;;;;16.35;93.64;95907.00;5093136;28;20052;-62
2022/06/11 02:31:54;;;;;;;14.80;13.23;;;;;;;16.37;94.08;95912.13;5092801;28;20493;-61
2022/06/11 02:34:22;;;;;;;14.75;13.27;;;;;;;16.41;93.37;95913.63;5093041;28;20015;-62
2022/06/11 02:37:00;;;;;;;15.38;13.75;;;;;;;16.32;93.76;95916.91;5092791;28;20116;-62
2022/06/11 02:39:27;;;;;;;16.20;14.00;;;;;;;16.32;94.14;95904.59;5092976;28;20021;-62
2022/06/11 02:41:53;;;;;;;16.08;14.38;;;;;;;16.40;93.52;95898.72;5092868;28;20415;-62
2022/06/11 02:44:20;;;;;;;17.77;14.43;;;;;;;16.39;93.71;95899.69;5092828;28;20081;-62
2022/06/11 02:46:46;;;;;;;21.27;15.52;;;;;;;16.33;93.86;95900.13;5092858;28;20446;-62
2022/06/11 02:49:29;;;;;;;18.75;15.27;;;;;;;16.32;94.10;95890.53;5092873;28;20027;-62
2022/06/11 02:51:58;;;;;;;19.23;15.73;;;;;;;16.25;94.25;95890.13;5092724;28;20552;-62
2022/06/11 02:54:25;;;;;;;16.95;15.27;;;;;;;16.27;94.38;95893.50;5092743;28;20415;-62
2022/06/11 02:56:53;;;;;;;21.73;15.90;;;;;;;16.31;94.34;95896.78;5092795;28;20062;-62
2022/06/11 02:59:20;;;;;;;18.67;15.13;;;;;;;16.27;94.38;95907.53;5092748;28;20068;-62
2022/06/11 03:01:46;;;;;;;16.27;14.70;;;;;;;16.29;94.53;95918.81;5092699;28;20378;-62
2022/06/11 03:04:13;;;;;;;22.73;17.08;;;;;;;16.32;94.22;95909.00;5092863;28;20402;-62
2022/06/11 03:06:42;;;;;;;18.27;16.13;;;;;;;16.31;94.18;95896.78;5096474;28;20023;-62
2022/06/11 03:09:10;;;;;;;17.48;15.55;;;;;;;16.34;94.39;95901.84;5096351;28;20028;-62
2022/06/11 03:11:36;;;;;;;16.80;13.98;;;;;;;16.45;93.24;95893.97;5096271;28;20039;-62
2022/06/11 03:14:03;;;;;;;15.02;13.32;;;;;;;16.45;92.53;95890.47;5096184;28;20024;-62
2022/06/11 03:16:29;;;;;;;16.38;14.23;;;;;;;16.53;92.50;95894.25;5095962;28;20040;-62
2022/06/11 03:18:55;;;;;;;14.65;12.82;;;;;;;16.58;91.86;95899.19;5096044;28;20063;-62
2022/06/11 03:21:20;;;;;;;14.75;13.23;;;;;;;16.60;91.88;95902.59;5096159;28;20048;-62
2022/06/11 03:23:46;;;;;;;15.15;13.65;;;;;;;16.65;92.04;95894.34;5096090;28;20104;-62
2022/06/11 03:26:12;;;;;;;13.13;11.82;;;;;;;16.72;91.31;95895.56;5096041;28;20028;-62
2022/06/11 03:28:38;;;;;;;13.43;12.13;;;;;;;16.74;90.09;95888.34;5095938;28;20433;-62
2022/06/11 03:31:06;;;;;;;16.15;11.63;;;;;;;16.79;89.83;95886.22;5095743;28;20035;-62
2022/06/11 03:33:34;;;;;;;12.43;11.23;;;;;;;16.84;88.67;95896.47;5095761;28;20028;-62
2022/06/11 03:36:00;;;;;;;11.15;9.93;;;;;;;16.81;88.10;95896.69;5095749;28;20024;-62
2022/06/11 03:38:26;;;;;;;14.60;11.00;;;;;;;16.82;88.23;95901.00;5095729;28;20039;-62
2022/06/11 03:40:51;;;;;;;11.38;9.98;;;;;;;16.84;87.89;95899.09;5095682;28;20077;-62
2022/06/11 03:43:17;;;;;;;13.40;11.45;;;;;;;16.90;87.73;95909.22;5095803;28;20378;-62
2022/06/11 03:45:43;;;;;;;11.75;10.55;;;;;;;16.95;87.99;95902.75;5094475;28;20394;-62
2022/06/11 03:48:10;;;;;;;12.05;10.68;;;;;;;17.01;88.39;95907.59;5095473;28;20048;-62
2022/06/11 03:50:38;;;;;;;13.52;12.18;;;;;;;17.06;88.65;95913.34;5095445;28;20489;-62
2022/06/11 03:53:06;;;;;;;13.38;11.60;;;;;;;17.12;88.91;95912.06;5095548;28;20028;-62
2022/06/11 03:55:32;;;;;;;15.45;12.75;;;;;;;17.15;88.74;95917.13;5095444;28;20390;-62
2022/06/11 03:57:58;;;;;;;17.55;11.60;;;;;;;17.20;89.14;95915.00;5095297;28;20032;-62
2022/06/11 04:03:12;;;;;;;11.20;10.10;;;;;;;17.33;88.45;95929.94;5095620;28;20084;-62
2022/06/11 04:05:40;;;;;;;16.38;11.38;;;;;;;17.34;88.19;95936.91;5095273;28;20012;-62
2022/06/11 04:08:06;;;;;;;12.45;11.25;;;;;;;17.37;88.01;95936.69;5095275;28;20016;-62
2022/06/11 04:10:33;;;;;;;11.77;10.52;;;;;;;17.38;87.66;95952.44;5094948;28;20028;-62
2022/06/11 04:12:59;;;;;;;11.40;10.27;;;;;;;17.41;87.51;95954.00;5095027;28;20117;-62
2022/06/11 04:15:25;;;;;;;12.75;11.48;;;;;;;17.41;87.69;95946.06;5094650;28;20493;-63
2022/06/11 04:17:52;;;;;;;12.95;10.20;;;;;;;17.46;87.43;95948.38;5095210;28;20390;-62
2022/06/11 04:20:18;;;;;;;12.02;10.40;;;;;;;17.47;87.27;95948.25;5095030;28;20097;-62
2022/06/11 04:22:44;;;;;;;11.05;10.02;;;;;;;17.49;86.75;95948.13;5094855;28;20469;-62
2022/06/11 04:25:15;;;;;;;12.75;11.02;;;;;;;17.53;86.44;95952.22;5094814;28;20141;-62
2022/06/11 04:27:41;;;;;;;11.00;9.88;;;;;;;17.59;85.79;95954.41;5094815;28;20027;-62
2022/06/11 04:30:08;;;;;;;13.18;10.13;;;;;;;17.58;85.44;95958.00;5094836;28;20012;-62
2022/06/11 04:32:34;;;;;;;9.93;9.02;;;;;;;17.51;84.92;95962.91;5094612;28;20027;-62
2022/06/11 04:35:01;;;;;;;14.43;8.82;;;;;;;17.55;84.84;95971.47;5094623;28;20099;-62
2022/06/11 04:37:29;;;;;;;9.88;8.88;;;;;;;17.51;84.60;95976.13;5094622;28;20024;-63
2022/06/11 04:39:57;;;;;;;9.55;7.93;;;;;;;17.52;84.54;95983.09;5094615;28;20031;-62
2022/06/11 04:42:24;;;;;;;10.43;8.60;;;;;;;17.57;84.61;95987.22;5094501;28;20058;-62
2022/06/11 04:44:50;;;;;;;10.77;8.38;;;;;;;17.63;84.64;95978.81;5094589;28;20448;-62
2022/06/11 04:47:21;;;;;;;9.95;8.95;;;;;;;17.60;84.60;95985.16;5094449;28;20426;-62
2022/06/11 04:49:51;;;;;;;10.00;9.10;;;;;;;17.55;85.13;95993.44;5094434;28;20397;-62
2022/06/11 04:52:17;;;;;;;10.65;9.68;;;;;;;17.62;86.11;96000.91;5094394;28;20070;-62
2022/06/11 04:54:42;;;;;;;11.00;9.32;;;;;;;17.66;86.28;96005.00;5094324;28;20020;-62
2022/06/11 04:57:09;;;;;;;10.43;9.43;;;;;;;17.73;86.23;96000.94;5094504;28;20055;-62
2022/06/11 04:59:35;;;;;;;12.25;8.38;;;;;;;17.70;85.84;95992.41;5094448;28;20531;-62
2022/06/11 05:02:02;;;;;;;12.15;8.77;;;;;;;17.73;86.00;96002.75;5094117;28;20027;-62
2022/06/11 05:04:28;;;;;;;10.15;9.02;;;;;;;17.67;84.95;96009.38;5094136;28;20060;-62
2022/06/11 05:06:54;;;;;;;8.15;7.45;;;;;;;17.67;84.68;96009.38;5094144;28;20044;-62
2022/06/11 05:09:21;;;;;;;8.57;7.75;;;;;;;17.64;85.03;96007.78;5094184;28;20031;-62
2022/06/11 05:11:48;;;;;;;8.95;8.18;;;;;;;17.69;85.17;96020.66;5093830;28;20023;-62
2022/06/11 05:14:14;;;;;;;8.35;7.63;;;;;;;17.68;85.32;96016.31;5093866;28;20024;-62
2022/06/11 05:16:42;;;;;;;10.38;8.70;;;;;;;17.78;85.71;96012.03;5093539;28;20048;-62
2022/06/11 05:19:11;;;;;;;10.82;8.57;;;;;;;17.90;86.21;96020.84;5093756;28;20439;-62
2022/06/11 05:21:38;;;;;;;9.80;8.85;;;;;;;18.17;85.55;96016.22;5093966;28;20055;-62
2022/06/11 05:24:05;;;;;;;8.98;8.18;;;;;;;18.26;84.67;96014.66;5093794;28;20024;-62
2022/06/11 05:26:36;;;;;;;8.88;8.07;;;;;;;18.30;83.64;96016.09;5093307;28;20462;-62
2022/06/11 05:29:04;;;;;;;10.48;8.20;;;;;;;18.32;83.43;96014.19;5093784;28;20028;-62
2022/06/11 05:31:29;;;;;;;11.70;8.20;;;;;;;18.31;83.20;96017.81;5093712;28;20378;-62
2022/06/11 05:33:55;;;;;;;9.10;8.18;;;;;;;18.23;83.33;96026.34;5093733;28;20016;-61
2022/06/11 05:36:21;;;;;;;11.70;8.95;;;;;;;18.34;84.75;96025.50;5093587;28;20031;-62
2022/06/11 05:38:48;;;;;;;10.30;8.45;;;;;;;18.46;83.51;96025.50;5093492;28;20031;-62
2022/06/11 05:41:14;;;;;;;8.45;7.57;;;;;;;18.32;81.83;96030.06;5093536;28;20481;-62
2022/06/11 05:43:39;;;;;;;9.27;7.15;;;;;;;18.16;81.23;96041.84;5093730;28;20031;-63
2022/06/11 05:46:12;;;;;;;15.68;7.30;;;;;;;17.90;83.12;96039.34;5093535;28;20127;-62
2022/06/11 05:48:43;;;;;;;8.02;7.30;;;;;;;17.87;84.40;96042.22;5093497;28;20032;-62
2022/06/11 05:51:13;;;;;;;8.30;7.50;;;;;;;17.78;85.25;96033.19;5093374;28;20024;-62
2022/06/11 05:53:39;;;;;;;8.93;7.78;;;;;;;17.84;86.03;96047.75;5093505;28;20028;-62
2022/06/11 05:56:05;;;;;;;8.93;7.65;;;;;;;17.72;85.38;96040.72;5093282;28;20498;-62
2022/06/11 05:58:40;;;;;;;8.90;8.00;;;;;;;17.60;85.12;96045.13;5093419;28;20363;-63
2022/06/11 06:01:07;;;;;;;10.00;8.70;;;;;;;17.62;85.33;96049.38;5093272;28;20028;-62
2022/06/11 06:03:33;;;;;;;10.20;9.20;;;;;;;17.67;85.17;96039.28;5093251;28;20382;-62
2022/06/11 06:05:58;;;;;;;10.50;8.90;;;;;;;17.73;85.07;96047.72;5093365;28;20016;-62
2022/06/11 06:08:24;;;;;;;11.85;9.23;;;;;;;17.76;85.86;96048.31;5093163;28;20101;-62
2022/06/11 06:10:50;;;;;;;11.95;9.55;;;;;;;17.83;86.32;96051.38;5093070;28;20028;-63
2022/06/11 06:16:00;;;;;;;10.98;9.48;;;;;;;17.77;85.06;96046.53;5093078;28;20114;-62
2022/06/11 06:18:26;;;;;;;13.88;9.90;;;;;;;17.76;85.31;96044.84;5093190;28;20052;-62
2022/06/11 06:20:52;;;;;;;14.65;9.57;;;;;;;17.75;85.54;96040.50;5091860;28;20031;-62
2022/06/11 06:23:17;;;;;;;14.30;9.25;;;;;;;17.76;85.38;96040.38;5093140;28;20488;-62
2022/06/11 06:25:43;;;;;;;9.43;8.63;;;;;;;17.85;84.82;96035.38;5093027;28;20016;-62
2022/06/11 06:28:10;;;;;;;11.15;9.52;;;;;;;17.78;84.92;96037.63;5092970;28;20095;-62
2022/06/11 06:30:36;;;;;;;12.25;9.98;;;;;;;17.78;85.69;96038.47;5093031;28;20032;-62
2022/06/11 06:33:01;;;;;;;12.90;8.98;;;;;;;17.78;84.93;96038.47;5093058;28;20027;-62
2022/06/11 06:35:27;;;;;;;9.90;9.00;;;;;;;17.76;85.40;96035.09;5093019;28;21229;-62
2022/06/11 06:37:52;;;;;;;11.52;10.40;;;;;;;17.81;85.62;96038.25;5092917;28;20063;-62
2022/06/11 06:40:19;;;;;;;10.73;8.90;;;;;;;17.70;84.71;96048.78;5096302;28;20051;-62
2022/06/11 06:42:45;;;;;;;10.27;9.38;;;;;;;17.66;85.54;96045.53;5096893;28;20107;-62
2022/06/11 06:45:11;;;;;;;10.93;9.80;;;;;;;17.61;86.26;96052.13;5096954;28;20495;-62
2022/06/11 06:47:37;;;;;;;14.32;9.93;;;;;;;17.68;86.32;96053.34;5096933;28;20031;-62
2022/06/11 06:50:04;;;;;;;10.75;9.75;;;;;;;17.70;87.55;96048.78;5096737;28;20025;-62
2022/06/11 06:52:30;;;;;;;11.35;9.45;;;;;;;17.76;86.84;96055.44;5096646;28;20079;-62
2022/06/11 06:54:55;;;;;;;10.50;9.35;;;;;;;17.70;85.50;96059.34;5096710;28;20028;-62
2022/06/11 06:57:21;;;;;;;11.77;10.00;;;;;;;17.66;86.87;96064.03;5096733;28;20024;-62
2022/06/11 06:59:46;;;;;;;11.20;10.18;;;;;;;17.62;87.32;96059.09;5096623;28;20410;-62
2022/06/11 07:02:13;;;;;;;13.73;9.90;;;;;;;17.62;87.93;96067.03;5096512;28;20474;-62
2022/06/11 07:04:39;;;;;;;11.65;10.60;;;;;;;17.58;88.38;96070.88;5096564;28;20378;-61
2022/06/11 07:07:13;;;;;;;11.68;10.48;;;;;;;17.58;88.61;96074.31;5096423;28;20020;-61
2022/06/11 07:09:39;;;;;;;10.98;9.88;;;;;;;17.52;88.78;96078.28;5096416;28;20024;-62
2022/06/11 07:12:04;;;;;;;12.55;9.60;;;;;;;17.49;89.37;96082.97;5096231;28;20343;-62
2022/06/11 07:14:30;;;;;;;11.40;10.20;;;;;;;17.51;90.25;96084.53;5096173;28;20024;-62
2022/06/11 07:17:02;;;;;;;11.50;9.65;;;;;;;17.42;90.08;96083.41;5096005;28;20047;-62
2022/06/11 07:19:35;;;;;;;7.38;6.68;;;;;;;17.36;87.88;96089.13;5096293;28;20035;-62
2022/06/11 07:22:08;;;;;;;8.63;7.20;;;;;;;17.35;89.28;96089.25;5096296;28;20397;-62
2022/06/11 07:24:37;;;;;;;7.82;6.63;;;;;;;17.28;88.21;96099.44;5096129;28;20552;-62
2022/06/11 07:27:07;;;;;;;8.02;5.70;;;;;;;17.25;87.83;96095.19;5095951;28;20032;-62
2022/06/11 07:29:47;;;;;;;7.97;6.15;;;;;;;17.21;87.44;96095.53;5095974;28;20021;-62
2022/06/11 07:32:16;;;;;;;7.50;6.68;;;;;;;17.25;88.65;96097.00;5096087;28;20078;-62
2022/06/11 07:34:43;;;;;;;6.57;6.07;;;;;;;17.20;87.75;96099.13;5096015;28;20016;-61
2022/06/11 07:37:09;;;;;;;7.45;6.25;;;;;;;17.23;88.74;96083.06;5095963;28;20442;-61
2022/06/11 07:39:35;;;;;;;8.65;5.35;;;;;;;17.21;87.50;96079.66;5095910;28;20474;-62
2022/06/11 07:42:01;;;;;;;6.20;5.60;;;;;;;17.20;88.08;96064.78;5095720;28;20027;-62
2022/06/11 07:44:27;;;;;;;6.07;5.47;;;;;;;17.22;87.92;96057.59;5095806;28;20359;-62
2022/06/11 07:46:53;;;;;;;7.38;5.53;;;;;;;17.29;88.71;96051.75;5095692;28;20103;-62
2022/06/11 07:49:19;;;;;;;5.07;4.57;;;;;;;17.38;86.49;96046.72;5095271;28;20073;-62
2022/06/11 07:51:46;;;;;;;6.18;5.28;;;;;;;17.33;86.76;96041.78;5095423;28;20115;-62
2022/06/11 07:54:12;;;;;;;5.40;4.88;;;;;;;17.39;85.66;96051.91;5095648;28;20032;-62
2022/06/11 07:56:38;;;;;;;8.68;4.97;;;;;;;17.41;87.05;96054.44;5095429;28;20050;-62
2022/06/11 07:59:05;;;;;;;6.10;5.07;;;;;;;17.41;86.87;96055.28;5095438;28;20074;-62
2022/06/11 08:01:31;;;;;;;7.07;5.35;;;;;;;17.39;86.47;96070.41;5095386;28;20051;-62
2022/06/11 08:03:56;;;;;;;5.50;5.00;;;;;;;17.41;86.41;96071.16;5095275;28;20453;-62
2022/06/11 08:06:22;;;;;;;6.10;5.53;;;;;;;17.47;87.08;96075.13;5095289;28;20386;-62
2022/06/11 08:08:50;;;;;;;5.35;4.82;;;;;;;17.51;86.30;96075.75;5095165;28;20020;-62
2022/06/11 08:11:19;;;;;;;6.95;4.60;;;;;;;17.52;86.45;96096.78;5095228;28;20149;-62
2022/06/11 08:13:47;;;;;;;4.97;4.47;;;;;;;17.49;85.59;96106.75;5095196;28;20024;-62
2022/06/11 08:16:13;;;;;;;5.90;5.30;;;;;;;17.51;87.45;96105.69;5094869;28;20516;-62
2022/06/11 08:18:39;;;;;;;7.50;4.70;;;;;;;17.50;85.74;96113.72;5095123;28;20016;-62
2022/06/11 08:21:06;;;;;;;6.18;5.18;;;;;;;17.55;86.25;96101.84;5095074;28;20500;-62
2022/06/11 08:23:31;;;;;;;6.03;4.55;;;;;;;17.51;85.74;96103.03;5095188;28;20123;-62
2022/06/11 08:25:57;;;;;;;7.78;5.25;;;;;;;17.57;85.90;96090.34;5094948;28;20461;-62
2022/06/11 08:28:24;;;;;;;6.65;5.18;;;;;;;17.52;85.24;96078.28;5094770;28;20020;-62
2022/06/11 08:30:51;;;;;;;6.20;5.22;;;;;;;17.54;86.10;96078.16;5094755;28;20024;-62
2022/06/11 08:33:18;;;;;;;7.75;5.07;;;;;;;17.49;85.77;96069.75;5093744;28;20016;-62
2022/06/11 08:35:43;;;;;;;5.80;4.45;;;;;;;17.50;86.59;96066.13;5094827;28;20016;-62
2022/06/11 08:38:10;;;;;;;8.35;5.22;;;;;;;17.42;86.05;96054.31;5094602;28;20032;-62
2022/06/11 08:40:44;;;;;;;8.25;5.65;;;;;;;17.30;87.29;96055.22;5094566;28;20430;-62
2022/06/11 08:43:26;;;;;;;9.48;5.25;;;;;;;17.24;87.35;96045.09;5094691;28;20367;-62
2022/06/11 08:46:09;;;;;;;10.93;4.35;;;;;;;17.17;87.56;96048.22;5094504;28;20031;-62
2022/06/11 08:48:50;;;;;;;4.78;4.18;;;;;;;17.04;86.63;96045.56;5094375;28;20031;-61
2022/06/11 08:51:31;;;;;;;;;;;;;;;17.01;87.45;96058.16;5094791;28;20423;-62
2022/06/11 08:54:01;;;;;;;5.72;4.57;;;;;;;16.95;88.30;96062.09;5094434;28;20054;-62
2022/06/11 08:56:39;;;;;;;7.70;3.60;;;;;;;16.91;86.86;96074.66;5094321;28;20077;-62
2022/06/11 08:59:41;;;;;;;7.15;4.07;;;;;;;16.89;87.24;96073.09;5094335;28;20035;-62
2022/06/11 09:02:51;;;;;;;4.43;4.03;;;;;;;16.90;88.08;96082.69;5093357;28;20032;-62
2022/06/11 09:05:38;;;;;;;6.20;4.60;;;;;;;16.85;88.27;96075.09;5066231;28;20397;-62
2022/06/11 09:08:29;;;;;;;9.07;4.00;;;;;;;16.93;88.34;96074.56;5094185;28;20028;-62
2022/06/11 09:11:07;;;;;;;9.50;5.18;;;;;;;16.99;89.06;96068.84;5094023;28;20032;-62
2022/06/11 09:13:38;;;;;;;5.90;4.20;;;;;;;17.03;89.13;96066.81;5094106;28;20055;-62
2022/06/11 09:16:19;;;;;;;5.07;4.40;;;;;;;17.07;88.84;96067.47;5093772;28;20113;-62
2022/06/11 09:19:05;;;;;;;5.03;4.53;;;;;;;17.12;88.74;96068.81;5094011;28;20028;-62
2022/06/11 09:21:40;;;;;;;4.82;3.83;;;;;;;17.15;88.30;96075.66;5094064;28;20028;-62
2022/06/11 09:24:27;;;;;;;9.18;4.82;;;;;;;17.16;89.61;96075.56;5093958;28;20106;-62
2022/06/11 09:27:00;;;;;;;4.68;3.22;;;;;;;17.21;87.41;96084.94;5093862;28;20374;-61
2022/06/11 09:29:49;;;;;;;6.68;3.88;;;;;;;17.18;88.08;96086.03;5093342;28;20043;-62
2022/06/11 09:32:27;;;;;;;4.82;4.13;;;;;;;17.24;88.51;96093.50;5093730;28;20508;-62
2022/06/11 09:35:14;;;;;;;5.10;4.00;;;;;;;17.29;87.78;96090.53;5093789;28;20413;-62
2022/06/11 09:37:58;;;;;;;4.38;3.60;;;;;;;17.34;88.21;96091.03;5093666;28;20047;-62
2022/06/11 09:41:11;;;;;;;5.30;4.07;;;;;;;17.42;87.57;96087.84;5093555;28;20485;-61
2022/06/11 09:44:05;;;;;;;6.95;3.08;;;;;;;17.39;85.70;96074.84;5011591;28;20439;-62
2022/06/11 09:46:49;;;;;;;2.97;2.78;;;;;;;17.36;85.63;96061.84;5093459;28;20032;-62
2022/06/11 09:49:20;;;;;;;3.53;3.22;;;;;;;17.43;86.51;96063.94;5093514;28;20032;-62
2022/06/11 09:52:15;;;;;;;;;;;;;;;17.50;87.13;96066.13;5093819;28;20051;-62
2022/06/11 09:54:54;;;;;;;3.38;3.08;;;;;;;17.50;87.21;96053.78;5021266;28;19967;-62
2022/06/11 09:57:55;;;;;;;4.43;3.65;;;;;;;17.64;87.06;96054.56;5093335;28;20036;-62
2022/06/11 10:00:34;;;;;;;3.72;3.38;;;;;;;17.77;85.92;96046.53;5093389;28;20486;-62
2022/06/11 10:03:30;;;;;;;3.50;3.20;;;;;;;17.80;86.50;96039.22;5093355;28;20058;-62
2022/06/11 10:06:03;;;;;;;3.80;3.40;;;;;;;17.78;87.18;96041.13;5093318;28;20088;-61
2022/06/11 10:08:44;;;;;;;3.95;3.13;;;;;;;17.71;86.83;96041.69;5093465;28;20381;-62
2022/06/11 10:11:34;;;;;;;;;;;;;;;17.62;85.92;96040.59;5093743;28;20030;-62
2022/06/11 10:14:30;;;;;;;5.72;3.15;;;;;;;17.47;87.91;96032.00;5098201;28;19918;-62
2022/06/11 10:17:07;;;;;;;4.25;3.10;;;;;;;17.42;88.38;96030.53;5099669;28;20047;-62
2022/06/11 10:19:43;;;;;;;3.58;3.28;;;;;;;17.37;89.18;96034.47;5099880;28;20024;-62
2022/06/11 10:22:21;;;;;;;3.20;2.88;;;;;;;17.35;88.92;96020.53;5099900;28;20126;-62
2022/06/11 10:25:15;;;;;;;4.05;3.00;;;;;;;17.31;88.26;96019.94;5099930;28;20073;-62
2022/06/11 10:28:10;;;;;;;12.02;4.38;;;;;;;17.20;89.00;96015.41;5099642;28;20074;-61
2022/06/11 10:30:45;;;;;;;3.58;3.05;;;;;;;17.25;88.11;96010.63;5089996;28;20036;-61
2022/06/11 10:33:25;;;;;;;4.15;3.10;;;;;;;17.20;88.70;96010.13;5099768;28;20114;-62
2022/06/11 10:36:18;;;;;;;2.88;2.65;;;;;;;17.20;88.63;96006.63;5099834;28;20059;-62
2022/06/11 10:39:10;;;;;;;4.10;3.33;;;;;;;17.20;89.85;96010.13;5099791;28;20028;-62
2022/06/11 10:42:28;;;;;;;4.50;3.00;;;;;;;17.17;89.53;96011.22;5099658;28;20032;-62
2022/06/11 10:44:55;;;;;;;6.57;3.08;;;;;;;17.14;89.37;96011.44;5011925;28;20029;-62
2022/06/11 10:47:37;;;;;;;3.70;3.10;;;;;;;17.21;89.66;96029.47;5099777;28;20028;-62
2022/06/11 10:50:11;;;;;;;3.28;2.88;;;;;;;17.35;89.08;96028.44;5099607;28;20363;-62
2022/06/11 10:52:43;;;;;;;3.90;2.85;;;;;;;17.41;88.90;96028.84;5099585;28;20077;-62
2022/06/11 10:55:16;;;;;;;3.30;3.00;;;;;;;17.47;88.11;96032.00;5099588;28;20366;-62
2022/06/11 10:57:46;;;;;;;2.33;2.13;;;;;;;17.54;86.87;96033.22;5099442;28;20153;-62
2022/06/11 11:00:25;;;;;;;8.38;2.90;;;;;;;17.52;86.63;96037.78;5099584;28;20028;-62
2022/06/11 11:02:57;;;;;;;3.90;2.80;;;;;;;17.58;87.31;96047.88;5099626;28;20130;-62
2022/06/11 11:05:23;;;;;;;5.72;2.15;;;;;;;17.63;87.06;96053.69;5099477;28;20028;-62
2022/06/11 11:07:59;;;;;;;6.97;2.17;;;;;;;17.61;86.24;96047.66;5099355;28;20020;-62
2022/06/11 11:10:37;;;;;;;2.50;2.30;;;;;;;17.57;87.30;96046.22;5099331;28;20031;-62
2022/06/11 11:13:12;;;;;;;5.82;2.70;;;;;;;17.52;86.97;96045.72;5099488;28;20038;-62
2022/06/11 11:15:47;;;;;;;3.42;2.70;;;;;;;17.57;87.66;96043.56;5099141;28;20028;-62
2022/06/11 11:18:21;;;;;;;5.93;2.53;;;;;;;17.60;87.96;96047.78;5099256;28;20028;-62
2022/06/11 11:20:50;;;;;;;2.80;2.60;;;;;;;17.55;88.96;96048.16;5099358;28;20028;-62
2022/06/11 11:23:23;;;;;;;3.35;2.90;;;;;;;17.62;89.26;96045.88;5099253;28;20028;-62
2022/06/11 11:26:04;;;;;;;4.72;3.05;;;;;;;17.66;88.34;96050.81;5095824;28;20035;-62
2022/06/11 11:28:38;;;;;;;2.92;2.70;;;;;;;17.64;87.56;96042.16;5096144;28;20115;-62
2022/06/11 11:31:16;;;;;;;2.92;2.50;;;;;;;17.74;87.52;96044.09;5096088;28;20037;-62
2022/06/11 11:34:12;;;;;;;3.83;2.63;;;;;;;17.83;88.56;96050.50;5096082;28;20414;-62
2022/06/11 11:36:38;;;;;;;2.75;2.30;;;;;;;17.90;87.72;96052.59;5095910;28;20032;-62
2022/06/11 11:39:13;;;;;;;5.10;2.90;;;;;;;18.04;87.44;96054.19;5095891;28;20012;-62
2022/06/11 11:41:49;;;;;;;5.20;3.03;;;;;;;18.14;87.32;96053.50;5095643;28;20024;-62
2022/06/11 11:44:23;;;;;;;4.57;2.65;;;;;;;18.27;86.79;96050.78;5095790;28;20028;-63
2022/06/11 11:46:55;;;;;;;3.22;2.72;;;;;;;18.42;86.69;96057.50;5095777;28;20032;-63
2022/06/11 11:49:33;;;;;;;2.88;2.67;;;;;;;18.50;84.46;96054.28;5095816;28;20474;-62
2022/06/11 11:52:18;;;;;;;2.92;2.45;;;;;;;18.63;83.87;96050.66;5095566;28;20031;-62
2022/06/11 11:55:10;;;;;;;2.75;2.10;;;;;;;18.75;83.87;96048.84;5095503;28;20032;-62
2022/06/11 11:57:38;;;;;;;2.72;2.42;;;;;;;18.86;83.38;96040.91;5095590;28;20031;-62